Aviation Digital Data Service (ADDS)

Output produced by METARs form (1916 UTC 18 June 2019)
found at http://www.aviationweather.gov/metar/data/
 
EYKA 181850Z 00000KT CAVOK 20/12 Q1018
TAF EYKA 181701Z 1818/1918 VRB04KT CAVOK 
     BECMG 1908/1910 9000 SCT045
       
EYPA 181850Z 35001KT CAVOK 17/15 Q1019
TAF EYPA 181701Z 1818/1918 VRB02KT 7000 NSC 
     BECMG 1909/1910 SCT035
       
EYSA 181850Z 01003KT CAVOK 22/14 Q1019 BLU NOSIG
TAF EYSA 181701Z 1818/1903 VRB04KT CAVOK
       
EYVI 181850Z VRB02KT CAVOK 20/11 Q1019 NOSIG
TAF EYVI 181701Z 1818/1918 VRB05KT CAVOK